• Join FlightAware (Why Join?)
  • Login
  • US Flag 
04:27PM EDT


 

Airport Tracker/Info


-or-


 

Live Flight TrackerFlight Track Log ✈ CPZ5776 ✈ 25-Apr-2012 ✈ KONT - KSLC

Flight Track Log - Related Links

Times and Time Zones

All times are in EDT time to prevent confusion due to time zone crossing. See the CPZ5776 flight status page for this flight to view local times or setup timezone preferences in your user account.

Time Position Orientation Groundspeed Altitude Reporting Facility
EDT Latitude Longitude Course Direction KTS MPH feet Rate Location/Type
06:16PM 34.0500 -117.7000 299° West 227 261 3,800  Level Southern California TRACON
06:18PM 34.1050 -117.8197 316° Northwest 258 297 7,500 2,520 Climbing Los Angeles Center
06:19PM 34.1686 -117.8936 324° Northwest 291 335 10,500 3,180 Climbing Los Angeles Center
06:20PM 34.2428 -117.9581 39° Northeast 306 352 13,900 2,700 Climbing Los Angeles Center
06:21PM 34.3150 -117.8867 60° Northeast 249 287 15,900 1,740 Climbing Los Angeles Center
06:22PM 34.3708 -117.7697 58° Northeast 296 341 17,400 1,860 Climbing Los Angeles Center
06:23PM 34.4350 -117.6450 59° Northeast 376 433 19,700 2,100 Climbing Los Angeles Center
06:24PM 34.4972 -117.5175 58° Northeast 406 467 21,700 1,920 Climbing Los Angeles Center
06:25PM 34.5653 -117.3825 59° Northeast 440 506 23,600 1,740 Climbing Los Angeles Center
06:26PM 34.6336 -117.2447 59° Northeast 460 529 25,200 1,500 Climbing Los Angeles Center
06:27PM 34.7036 -117.1017 59° Northeast 474 545 26,700 1,200 Climbing Los Angeles Center
06:28PM 34.7736 -116.9583 59° Northeast 486 559 27,600 960 Climbing Los Angeles Center
06:29PM 34.8475 -116.8072 60° Northeast 499 574 28,700 1,080 Climbing Los Angeles Center
06:30PM 34.9192 -116.6583 53° Northeast 509 586 29,800 1,080 Climbing Los Angeles Center
06:31PM 35.0075 -116.5169 45° Northeast 509 586 30,900 1,080 Climbing Los Angeles Center
06:32PM 35.1100 -116.3903 45° Northeast 514 592 32,000 1,020 Climbing Los Angeles Center
06:33PM 35.2250 -116.2483 46° Northeast 514 592 33,000 480 Climbing Los Angeles Center
06:34PM 35.3253 -116.1214 45° Northeast 525 604 33,000  Level Los Angeles Center
06:35PM 35.4275 -115.9939 46° Northeast 520 598 33,000  Level Los Angeles Center
06:36PM 35.5275 -115.8661 46° Northeast 520 598 33,000  Level Los Angeles Center
06:37PM 35.6292 -115.7381 45° Northeast 520 598 33,000  Level Los Angeles Center
06:38PM 35.7331 -115.6094 47° Northeast 515 593 33,000  Level Los Angeles Center
06:39PM 35.8306 -115.4783 46° Northeast 515 593 33,000  Level Los Angeles Center
06:40PM 35.9342 -115.3442 47° Northeast 521 600 33,000  Level Los Angeles Center
06:41PM 36.0333 -115.2147 45° Northeast 521 600 33,000  Level Los Angeles Center
06:42PM 36.1408 -115.0822 45° Northeast 527 606 33,000  Level Los Angeles Center
06:43PM 36.2419 -114.9550 47° Northeast 527 606 33,000  Level Los Angeles Center
06:44PM 36.3406 -114.8244 46° Northeast 521 600 33,000  Level Los Angeles Center
06:45PM 36.4394 -114.6992 45° Northeast 510 587 33,000  Level Los Angeles Center
06:46PM 36.5278 -114.5889 47° Northeast 505 581 33,000  Level Los Angeles Center
06:47PM 36.6364 -114.4419 46° Northeast 510 587 33,000  Level Los Angeles Center
06:48PM 36.7347 -114.3156 36° Northeast 510 587 33,000 -660 Level Los Angeles Center
06:49PM 36.8500 -114.2117 31° Northeast 510 587 31,700 -1,020 Descending Los Angeles Center
06:50PM 36.9736 -114.1178 32° Northeast 510 587 31,000 -360 Descending Los Angeles Center
06:51PM 37.0928 -114.0236 32° Northeast 510 587 31,000  Level Los Angeles Center
06:52PM 37.2567 -113.8961 32° Northeast 511 588 31,000  Level Salt Lake Center
06:53PM 37.3772 -113.8003 32° Northeast 506 582 31,000  Level Salt Lake Center
06:54PM 37.4992 -113.7031 32° Northeast 507 583 31,000  Level Salt Lake Center
06:55PM 37.6225 -113.6069 32° Northeast 509 586 31,000  Level Salt Lake Center
06:56PM 37.7467 -113.5089 32° Northeast 513 590 31,000  Level Salt Lake Center
06:57PM 37.8711 -113.4094 32° Northeast 515 593 31,000  Level Salt Lake Center
06:58PM 37.9956 -113.3100 32° Northeast 516 594 31,000  Level Salt Lake Center
06:59PM 38.1194 -113.2097 33° Northeast 516 594 31,000  Level Salt Lake Center
07:00PM 38.2428 -113.1086 32° Northeast 516 594 31,000  Level Salt Lake Center
07:01PM 38.3658 -113.0111 23° Northeast 513 590 31,000  Level Salt Lake Center
07:02PM 38.4981 -112.9406 23° Northeast 505 581 31,000  Level Salt Lake Center
07:03PM 38.6303 -112.8678 22° Northeast 507 583 31,000 -60 Level Salt Lake Center
07:05PM 38.7617 -112.7981 22° Northeast 503 579 30,900 -780 Descending Salt Lake Center
07:06PM 38.8931 -112.7283 23° Northeast 502 578 29,500 -1,440 Descending Salt Lake Center
07:07PM 39.0231 -112.6572 22° Northeast 501 577 28,000 -1,380 Descending Salt Lake Center
07:08PM 39.1450 -112.5925 24° Northeast 471 542 26,700 -1,320 Descending Salt Lake Center
07:09PM 39.2697 -112.5222 16° North 460 529 25,300 -1,320 Descending Salt Lake Center
07:10PM 39.3886 -112.4769 15° North 440 506 24,000 -1,260 Descending Salt Lake Center
07:11PM 39.5044 -112.4372 15° North 429 494 22,800 -1,260 Descending Salt Lake Center
07:12PM 39.6192 -112.3981 14° North 424 488 21,500 -1,320 Descending Salt Lake Center
07:13PM 39.7525 -112.3542 15° North 421 484 20,100 -1,260 Descending Salt Lake Center
07:14PM 39.8644 -112.3158 North 417 480 18,900 -1,140 Descending Salt Lake Center
07:15PM 39.9767 -112.2917 17° North 400 460 17,800 -960 Descending Salt Lake Center
07:16PM 40.0822 -112.2483 14° North 392 451 17,000 -1,020 Descending Salt Lake Center
07:17PM 40.1914 -112.2119 17° North 388 447 15,800 -1,440 Descending Salt Lake Center
07:18PM 40.2897 -112.1717 11° North 386 444 14,100 -900 Descending Salt Lake Center
07:19PM 40.3953 -112.1436 15° North 375 432 14,000 -720 Descending Salt Lake Center
07:20PM 40.5019 -112.1050 10° North 383 441 12,700 -1,380 Descending Salt Lake Center
07:21PM 40.6183 -112.0781 355° North 376 433 11,100 -900 Descending Salt Lake Center
07:22PM 40.7117 -112.0881 356° North 366 421 11,000 -60 Descending Salt Lake Center
07:23PM 40.8017 -112.0972 356° North 276 318 11,000 -360 Level Salt Lake Center
07:24PM 40.8739 -112.1039 62° Northeast 259 298 10,300 -1,260 Descending Salt Lake Center
07:26PM 40.9175 -111.9956 169° South 196 226 7,200 -1,680 Descending Salt Lake Center
07:27PM 40.8744 -111.9847 177° South 165 190 5,500 -1,200 Descending Salt Lake Center
07:28PM 40.8394 -111.9822 173° South 126 145 4,900 -600 Descending Salt Lake Center
07:29PM 40.7978 -111.9758 173° South 114 131 4,200 -600 Descending Salt Lake Center